sensor_id;sensor_type;location;lat;lon;timestamp;P1;durP1;ratioP1;P2;durP2;ratioP2
6564;SDS011;3316;44.118;27.258;2022-12-07T00:02:20;58.30;;;24.63;;
6564;SDS011;3316;44.118;27.258;2022-12-07T00:04:46;76.20;;;26.63;;
6564;SDS011;3316;44.118;27.258;2022-12-07T00:07:14;61.17;;;25.67;;
6564;SDS011;3316;44.118;27.258;2022-12-07T00:09:39;65.20;;;26.17;;
6564;SDS011;3316;44.118;27.258;2022-12-07T00:12:06;67.87;;;27.23;;
6564;SDS011;3316;44.118;27.258;2022-12-07T00:14:33;79.97;;;30.77;;
6564;SDS011;3316;44.118;27.258;2022-12-07T00:16:58;65.93;;;28.17;;
6564;SDS011;3316;44.118;27.258;2022-12-07T00:19:24;72.83;;;28.43;;
6564;SDS011;3316;44.118;27.258;2022-12-07T00:21:49;82.57;;;31.20;;
6564;SDS011;3316;44.118;27.258;2022-12-07T00:24:14;73.67;;;30.23;;
6564;SDS011;3316;44.118;27.258;2022-12-07T00:26:40;79.20;;;33.63;;
6564;SDS011;3316;44.118;27.258;2022-12-07T00:29:15;79.43;;;34.77;;
6564;SDS011;3316;44.118;27.258;2022-12-07T00:31:42;87.60;;;35.03;;
6564;SDS011;3316;44.118;27.258;2022-12-07T00:34:11;90.47;;;38.93;;
6564;SDS011;3316;44.118;27.258;2022-12-07T00:36:39;95.90;;;40.00;;
6564;SDS011;3316;44.118;27.258;2022-12-07T00:39:04;96.03;;;39.13;;
6564;SDS011;3316;44.118;27.258;2022-12-07T00:41:29;83.10;;;33.83;;
6564;SDS011;3316;44.118;27.258;2022-12-07T00:43:56;79.03;;;34.07;;
6564;SDS011;3316;44.118;27.258;2022-12-07T00:46:22;78.90;;;34.00;;
6564;SDS011;3316;44.118;27.258;2022-12-07T00:48:48;72.83;;;32.40;;
6564;SDS011;3316;44.118;27.258;2022-12-07T00:51:16;62.17;;;28.93;;
6564;SDS011;3316;44.118;27.258;2022-12-07T00:53:43;69.30;;;28.73;;
6564;SDS011;3316;44.118;27.258;2022-12-07T00:56:11;70.57;;;30.13;;
6564;SDS011;3316;44.118;27.258;2022-12-07T00:58:39;72.47;;;31.93;;
6564;SDS011;3316;44.118;27.258;2022-12-07T01:01:05;73.60;;;33.37;;
6564;SDS011;3316;44.118;27.258;2022-12-07T01:03:32;84.87;;;39.37;;
6564;SDS011;3316;44.118;27.258;2022-12-07T01:05:58;73.53;;;35.97;;
6564;SDS011;3316;44.118;27.258;2022-12-07T01:08:24;67.57;;;31.07;;
6564;SDS011;3316;44.118;27.258;2022-12-07T01:10:57;66.17;;;32.60;;
6564;SDS011;3316;44.118;27.258;2022-12-07T01:13:24;62.60;;;27.10;;
6564;SDS011;3316;44.118;27.258;2022-12-07T01:15:49;64.30;;;29.33;;
6564;SDS011;3316;44.118;27.258;2022-12-07T01:18:15;57.13;;;27.80;;
6564;SDS011;3316;44.118;27.258;2022-12-07T01:20:40;68.60;;;31.13;;
6564;SDS011;3316;44.118;27.258;2022-12-07T01:23:06;61.73;;;30.27;;
6564;SDS011;3316;44.118;27.258;2022-12-07T01:25:31;60.97;;;26.70;;
6564;SDS011;3316;44.118;27.258;2022-12-07T01:27:57;55.33;;;23.43;;
6564;SDS011;3316;44.118;27.258;2022-12-07T01:30:22;53.17;;;24.17;;
6564;SDS011;3316;44.118;27.258;2022-12-07T01:32:48;55.13;;;24.03;;
6564;SDS011;3316;44.118;27.258;2022-12-07T01:35:13;56.27;;;24.47;;
6564;SDS011;3316;44.118;27.258;2022-12-07T01:37:39;50.90;;;23.10;;
6564;SDS011;3316;44.118;27.258;2022-12-07T01:40:06;51.67;;;23.63;;
6564;SDS011;3316;44.118;27.258;2022-12-07T01:42:33;58.23;;;24.27;;
6564;SDS011;3316;44.118;27.258;2022-12-07T01:47:43;48.67;;;21.07;;
6564;SDS011;3316;44.118;27.258;2022-12-07T01:50:12;46.23;;;22.30;;
6564;SDS011;3316;44.118;27.258;2022-12-07T01:52:38;47.83;;;20.47;;
6564;SDS011;3316;44.118;27.258;2022-12-07T01:55:06;46.37;;;20.30;;
6564;SDS011;3316;44.118;27.258;2022-12-07T01:57:36;51.60;;;21.37;;
6564;SDS011;3316;44.118;27.258;2022-12-07T02:00:05;48.43;;;19.43;;
6564;SDS011;3316;44.118;27.258;2022-12-07T02:02:37;47.40;;;19.67;;
6564;SDS011;3316;44.118;27.258;2022-12-07T02:05:12;42.37;;;18.87;;
6564;SDS011;3316;44.118;27.258;2022-12-07T02:07:39;46.07;;;19.60;;
6564;SDS011;3316;44.118;27.258;2022-12-07T02:10:16;40.60;;;17.40;;
6564;SDS011;3316;44.118;27.258;2022-12-07T02:12:42;42.63;;;18.70;;
6564;SDS011;3316;44.118;27.258;2022-12-07T02:15:09;42.80;;;18.43;;
6564;SDS011;3316;44.118;27.258;2022-12-07T02:21:11;38.17;;;19.00;;
6564;SDS011;3316;44.118;27.258;2022-12-07T02:31:21;56.77;;;27.40;;
6564;SDS011;3316;44.118;27.258;2022-12-07T02:33:52;65.97;;;32.23;;
6564;SDS011;3316;44.118;27.258;2022-12-07T02:36:31;76.57;;;40.50;;
6564;SDS011;3316;44.118;27.258;2022-12-07T02:39:14;146.47;;;66.63;;
6564;SDS011;3316;44.118;27.258;2022-12-07T02:41:46;104.13;;;48.07;;
6564;SDS011;3316;44.118;27.258;2022-12-07T02:44:18;80.87;;;37.67;;
6564;SDS011;3316;44.118;27.258;2022-12-07T02:46:49;49.47;;;23.47;;
6564;SDS011;3316;44.118;27.258;2022-12-07T02:49:18;61.57;;;27.50;;
6564;SDS011;3316;44.118;27.258;2022-12-07T02:51:46;62.80;;;31.00;;
6564;SDS011;3316;44.118;27.258;2022-12-07T02:54:12;66.33;;;33.67;;
6564;SDS011;3316;44.118;27.258;2022-12-07T02:56:49;65.77;;;33.13;;
6564;SDS011;3316;44.118;27.258;2022-12-07T03:16:15;51.87;;;23.43;;
6564;SDS011;3316;44.118;27.258;2022-12-07T03:21:23;48.73;;;21.20;;
6564;SDS011;3316;44.118;27.258;2022-12-07T03:23:55;44.70;;;20.47;;
6564;SDS011;3316;44.118;27.258;2022-12-07T03:26:24;51.80;;;20.13;;
6564;SDS011;3316;44.118;27.258;2022-12-07T03:29:02;53.63;;;23.77;;
6564;SDS011;3316;44.118;27.258;2022-12-07T03:31:41;47.10;;;22.37;;
6564;SDS011;3316;44.118;27.258;2022-12-07T03:36:52;48.43;;;24.40;;
6564;SDS011;3316;44.118;27.258;2022-12-07T03:42:14;53.80;;;23.60;;
6564;SDS011;3316;44.118;27.258;2022-12-07T03:44:40;52.30;;;23.43;;
6564;SDS011;3316;44.118;27.258;2022-12-07T03:47:15;54.97;;;22.87;;
6564;SDS011;3316;44.118;27.258;2022-12-07T03:50:02;52.93;;;23.07;;
6564;SDS011;3316;44.118;27.258;2022-12-07T03:52:32;51.67;;;21.23;;
6564;SDS011;3316;44.118;27.258;2022-12-07T03:55:12;51.77;;;24.17;;
6564;SDS011;3316;44.118;27.258;2022-12-07T03:57:45;47.63;;;21.37;;
6564;SDS011;3316;44.118;27.258;2022-12-07T04:00:14;51.33;;;19.83;;
6564;SDS011;3316;44.118;27.258;2022-12-07T04:02:40;46.63;;;20.60;;
6564;SDS011;3316;44.118;27.258;2022-12-07T04:05:08;47.07;;;19.70;;
6564;SDS011;3316;44.118;27.258;2022-12-07T04:07:34;49.47;;;20.43;;
6564;SDS011;3316;44.118;27.258;2022-12-07T04:09:59;50.67;;;20.87;;
6564;SDS011;3316;44.118;27.258;2022-12-07T04:12:24;48.90;;;22.97;;
6564;SDS011;3316;44.118;27.258;2022-12-07T04:14:50;52.43;;;21.20;;
6564;SDS011;3316;44.118;27.258;2022-12-07T04:17:15;52.03;;;22.07;;
6564;SDS011;3316;44.118;27.258;2022-12-07T04:19:41;49.23;;;20.90;;
6564;SDS011;3316;44.118;27.258;2022-12-07T04:22:07;56.03;;;25.53;;
6564;SDS011;3316;44.118;27.258;2022-12-07T04:24:33;54.90;;;24.00;;
6564;SDS011;3316;44.118;27.258;2022-12-07T04:26:59;57.00;;;25.73;;
6564;SDS011;3316;44.118;27.258;2022-12-07T04:29:24;47.93;;;23.10;;
6564;SDS011;3316;44.118;27.258;2022-12-07T04:31:50;48.80;;;21.33;;
6564;SDS011;3316;44.118;27.258;2022-12-07T04:34:16;47.57;;;21.93;;
6564;SDS011;3316;44.118;27.258;2022-12-07T04:36:43;54.70;;;24.37;;
6564;SDS011;3316;44.118;27.258;2022-12-07T04:39:13;51.50;;;22.33;;
6564;SDS011;3316;44.118;27.258;2022-12-07T04:41:46;55.83;;;21.13;;
6564;SDS011;3316;44.118;27.258;2022-12-07T04:44:12;45.00;;;20.67;;
6564;SDS011;3316;44.118;27.258;2022-12-07T04:46:39;45.67;;;20.53;;
6564;SDS011;3316;44.118;27.258;2022-12-07T04:49:06;61.13;;;23.37;;
6564;SDS011;3316;44.118;27.258;2022-12-07T04:51:31;54.00;;;20.80;;
6564;SDS011;3316;44.118;27.258;2022-12-07T04:53:57;53.43;;;23.40;;
6564;SDS011;3316;44.118;27.258;2022-12-07T04:56:22;56.40;;;26.13;;
6564;SDS011;3316;44.118;27.258;2022-12-07T04:58:49;76.30;;;37.27;;
6564;SDS011;3316;44.118;27.258;2022-12-07T05:01:15;60.47;;;30.00;;
6564;SDS011;3316;44.118;27.258;2022-12-07T05:03:42;72.73;;;34.00;;
6564;SDS011;3316;44.118;27.258;2022-12-07T05:06:07;77.87;;;37.23;;
6564;SDS011;3316;44.118;27.258;2022-12-07T05:08:33;109.00;;;56.57;;
6564;SDS011;3316;44.118;27.258;2022-12-07T05:10:59;105.10;;;55.00;;
6564;SDS011;3316;44.118;27.258;2022-12-07T05:13:25;102.87;;;53.50;;
6564;SDS011;3316;44.118;27.258;2022-12-07T05:15:50;71.23;;;33.30;;
6564;SDS011;3316;44.118;27.258;2022-12-07T05:18:16;58.83;;;28.57;;
6564;SDS011;3316;44.118;27.258;2022-12-07T05:20:42;63.97;;;24.33;;
6564;SDS011;3316;44.118;27.258;2022-12-07T05:23:08;58.77;;;26.03;;
6564;SDS011;3316;44.118;27.258;2022-12-07T05:25:34;52.47;;;22.60;;
6564;SDS011;3316;44.118;27.258;2022-12-07T05:28:01;58.57;;;22.20;;
6564;SDS011;3316;44.118;27.258;2022-12-07T05:30:26;63.13;;;24.97;;
6564;SDS011;3316;44.118;27.258;2022-12-07T05:32:52;65.77;;;26.33;;
6564;SDS011;3316;44.118;27.258;2022-12-07T05:35:18;83.57;;;38.43;;
6564;SDS011;3316;44.118;27.258;2022-12-07T05:37:44;95.03;;;45.43;;
6564;SDS011;3316;44.118;27.258;2022-12-07T05:40:10;102.40;;;48.57;;
6564;SDS011;3316;44.118;27.258;2022-12-07T05:42:38;158.57;;;75.57;;
6564;SDS011;3316;44.118;27.258;2022-12-07T05:45:04;171.77;;;80.33;;
6564;SDS011;3316;44.118;27.258;2022-12-07T05:47:30;123.90;;;53.10;;
6564;SDS011;3316;44.118;27.258;2022-12-07T05:49:55;143.07;;;74.43;;
6564;SDS011;3316;44.118;27.258;2022-12-07T05:52:21;120.97;;;59.73;;
6564;SDS011;3316;44.118;27.258;2022-12-07T05:54:47;147.57;;;71.57;;
6564;SDS011;3316;44.118;27.258;2022-12-07T05:57:13;125.47;;;57.63;;
6564;SDS011;3316;44.118;27.258;2022-12-07T05:59:38;159.90;;;75.90;;
6564;SDS011;3316;44.118;27.258;2022-12-07T06:02:08;124.90;;;62.73;;
6564;SDS011;3316;44.118;27.258;2022-12-07T06:04:38;125.37;;;56.43;;
6564;SDS011;3316;44.118;27.258;2022-12-07T06:07:05;122.07;;;54.37;;
6564;SDS011;3316;44.118;27.258;2022-12-07T06:09:32;98.00;;;46.03;;
6564;SDS011;3316;44.118;27.258;2022-12-07T06:11:58;133.13;;;58.70;;
6564;SDS011;3316;44.118;27.258;2022-12-07T06:14:43;120.83;;;57.13;;
6564;SDS011;3316;44.118;27.258;2022-12-07T06:17:09;105.23;;;48.43;;
6564;SDS011;3316;44.118;27.258;2022-12-07T06:19:35;106.50;;;46.47;;
6564;SDS011;3316;44.118;27.258;2022-12-07T06:22:01;312.37;;;99.50;;
6564;SDS011;3316;44.118;27.258;2022-12-07T06:24:29;142.63;;;62.53;;
6564;SDS011;3316;44.118;27.258;2022-12-07T06:26:55;118.63;;;49.57;;
6564;SDS011;3316;44.118;27.258;2022-12-07T06:29:21;197.20;;;80.67;;
6564;SDS011;3316;44.118;27.258;2022-12-07T06:31:47;163.00;;;66.67;;
6564;SDS011;3316;44.118;27.258;2022-12-07T06:34:13;198.13;;;75.63;;
6564;SDS011;3316;44.118;27.258;2022-12-07T06:36:41;188.10;;;76.13;;
6564;SDS011;3316;44.118;27.258;2022-12-07T06:39:06;447.17;;;181.47;;
6564;SDS011;3316;44.118;27.258;2022-12-07T06:41:34;223.53;;;78.73;;
6564;SDS011;3316;44.118;27.258;2022-12-07T06:44:03;320.03;;;119.97;;
6564;SDS011;3316;44.118;27.258;2022-12-07T06:46:30;157.77;;;63.50;;
6564;SDS011;3316;44.118;27.258;2022-12-07T06:48:55;143.20;;;54.60;;
6564;SDS011;3316;44.118;27.258;2022-12-07T06:51:21;138.13;;;49.87;;
6564;SDS011;3316;44.118;27.258;2022-12-07T06:53:47;144.13;;;51.47;;
6564;SDS011;3316;44.118;27.258;2022-12-07T06:56:12;320.63;;;109.17;;
6564;SDS011;3316;44.118;27.258;2022-12-07T06:58:39;137.60;;;49.80;;
6564;SDS011;3316;44.118;27.258;2022-12-07T07:01:08;104.77;;;42.47;;
6564;SDS011;3316;44.118;27.258;2022-12-07T07:03:38;88.97;;;37.90;;
6564;SDS011;3316;44.118;27.258;2022-12-07T07:06:03;123.27;;;49.60;;
6564;SDS011;3316;44.118;27.258;2022-12-07T07:08:30;145.47;;;52.60;;
6564;SDS011;3316;44.118;27.258;2022-12-07T07:10:55;112.80;;;46.33;;
6564;SDS011;3316;44.118;27.258;2022-12-07T07:13:21;81.60;;;35.13;;
6564;SDS011;3316;44.118;27.258;2022-12-07T07:15:46;85.80;;;39.20;;
6564;SDS011;3316;44.118;27.258;2022-12-07T07:18:12;125.40;;;55.70;;
6564;SDS011;3316;44.118;27.258;2022-12-07T07:20:37;95.17;;;45.80;;
6564;SDS011;3316;44.118;27.258;2022-12-07T07:23:04;125.23;;;61.20;;
6564;SDS011;3316;44.118;27.258;2022-12-07T07:25:31;127.33;;;64.60;;
6564;SDS011;3316;44.118;27.258;2022-12-07T07:27:56;91.33;;;45.80;;
6564;SDS011;3316;44.118;27.258;2022-12-07T07:30:22;128.90;;;69.57;;
6564;SDS011;3316;44.118;27.258;2022-12-07T07:32:48;119.10;;;61.17;;
6564;SDS011;3316;44.118;27.258;2022-12-07T07:35:14;114.40;;;54.17;;
6564;SDS011;3316;44.118;27.258;2022-12-07T07:37:39;103.43;;;48.03;;
6564;SDS011;3316;44.118;27.258;2022-12-07T07:40:06;90.93;;;43.17;;
6564;SDS011;3316;44.118;27.258;2022-12-07T07:42:32;76.90;;;36.37;;
6564;SDS011;3316;44.118;27.258;2022-12-07T07:44:57;62.00;;;30.73;;
6564;SDS011;3316;44.118;27.258;2022-12-07T07:47:23;54.83;;;23.97;;
6564;SDS011;3316;44.118;27.258;2022-12-07T07:49:48;84.10;;;36.37;;
6564;SDS011;3316;44.118;27.258;2022-12-07T07:52:14;68.07;;;28.53;;
6564;SDS011;3316;44.118;27.258;2022-12-07T07:54:39;68.27;;;33.63;;
6564;SDS011;3316;44.118;27.258;2022-12-07T07:57:04;49.33;;;23.73;;
6564;SDS011;3316;44.118;27.258;2022-12-07T07:59:30;61.53;;;31.93;;
6564;SDS011;3316;44.118;27.258;2022-12-07T08:01:55;67.83;;;32.87;;
6564;SDS011;3316;44.118;27.258;2022-12-07T08:04:21;71.63;;;36.27;;
6564;SDS011;3316;44.118;27.258;2022-12-07T08:06:46;59.50;;;29.30;;
6564;SDS011;3316;44.118;27.258;2022-12-07T08:09:12;87.77;;;46.33;;
6564;SDS011;3316;44.118;27.258;2022-12-07T08:11:37;71.63;;;33.27;;
6564;SDS011;3316;44.118;27.258;2022-12-07T08:14:02;91.33;;;47.73;;
6564;SDS011;3316;44.118;27.258;2022-12-07T08:16:28;55.17;;;28.47;;
6564;SDS011;3316;44.118;27.258;2022-12-07T08:18:54;41.80;;;21.13;;
6564;SDS011;3316;44.118;27.258;2022-12-07T08:21:19;52.17;;;28.87;;
6564;SDS011;3316;44.118;27.258;2022-12-07T08:23:45;62.30;;;29.13;;
6564;SDS011;3316;44.118;27.258;2022-12-07T08:26:15;92.47;;;36.70;;
6564;SDS011;3316;44.118;27.258;2022-12-07T08:28:41;97.83;;;40.00;;
6564;SDS011;3316;44.118;27.258;2022-12-07T08:31:12;82.57;;;35.57;;
6564;SDS011;3316;44.118;27.258;2022-12-07T08:33:39;66.97;;;30.97;;
6564;SDS011;3316;44.118;27.258;2022-12-07T08:36:06;81.73;;;37.33;;
6564;SDS011;3316;44.118;27.258;2022-12-07T08:38:34;143.37;;;57.57;;
6564;SDS011;3316;44.118;27.258;2022-12-07T08:41:00;48.60;;;21.73;;
6564;SDS011;3316;44.118;27.258;2022-12-07T08:43:26;100.03;;;42.00;;
6564;SDS011;3316;44.118;27.258;2022-12-07T08:45:54;49.23;;;26.83;;
6564;SDS011;3316;44.118;27.258;2022-12-07T08:48:36;49.33;;;25.00;;
6564;SDS011;3316;44.118;27.258;2022-12-07T08:51:05;51.13;;;27.03;;
6564;SDS011;3316;44.118;27.258;2022-12-07T08:53:32;45.80;;;21.77;;
6564;SDS011;3316;44.118;27.258;2022-12-07T08:56:00;32.83;;;14.87;;
6564;SDS011;3316;44.118;27.258;2022-12-07T08:58:25;43.17;;;18.67;;
6564;SDS011;3316;44.118;27.258;2022-12-07T09:00:51;89.47;;;37.73;;
6564;SDS011;3316;44.118;27.258;2022-12-07T09:03:17;22.37;;;11.50;;
6564;SDS011;3316;44.118;27.258;2022-12-07T09:05:43;30.07;;;15.80;;
6564;SDS011;3316;44.118;27.258;2022-12-07T09:08:09;52.87;;;22.63;;
6564;SDS011;3316;44.118;27.258;2022-12-07T09:10:34;51.00;;;25.53;;
6564;SDS011;3316;44.118;27.258;2022-12-07T09:13:00;43.17;;;19.07;;
6564;SDS011;3316;44.118;27.258;2022-12-07T09:15:26;58.17;;;27.13;;
6564;SDS011;3316;44.118;27.258;2022-12-07T09:17:55;63.77;;;27.10;;
6564;SDS011;3316;44.118;27.258;2022-12-07T09:20:20;87.50;;;34.70;;
6564;SDS011;3316;44.118;27.258;2022-12-07T09:22:46;144.17;;;54.53;;
6564;SDS011;3316;44.118;27.258;2022-12-07T09:25:12;131.90;;;53.60;;
6564;SDS011;3316;44.118;27.258;2022-12-07T09:27:37;43.63;;;21.17;;
6564;SDS011;3316;44.118;27.258;2022-12-07T09:30:03;44.23;;;20.23;;
6564;SDS011;3316;44.118;27.258;2022-12-07T09:32:30;53.83;;;24.80;;
6564;SDS011;3316;44.118;27.258;2022-12-07T09:34:55;106.57;;;40.43;;
6564;SDS011;3316;44.118;27.258;2022-12-07T09:37:21;189.23;;;68.63;;
6564;SDS011;3316;44.118;27.258;2022-12-07T09:39:47;37.20;;;18.10;;
6564;SDS011;3316;44.118;27.258;2022-12-07T09:42:24;25.40;;;13.53;;
6564;SDS011;3316;44.118;27.258;2022-12-07T09:44:51;48.27;;;21.87;;
6564;SDS011;3316;44.118;27.258;2022-12-07T09:47:16;36.07;;;17.43;;
6564;SDS011;3316;44.118;27.258;2022-12-07T09:49:42;34.17;;;17.97;;
6564;SDS011;3316;44.118;27.258;2022-12-07T09:54:33;105.43;;;41.00;;
6564;SDS011;3316;44.118;27.258;2022-12-07T09:57:01;88.37;;;34.93;;
6564;SDS011;3316;44.118;27.258;2022-12-07T09:59:28;46.30;;;21.87;;
6564;SDS011;3316;44.118;27.258;2022-12-07T10:01:54;59.70;;;26.90;;
6564;SDS011;3316;44.118;27.258;2022-12-07T10:04:26;30.37;;;14.10;;
6564;SDS011;3316;44.118;27.258;2022-12-07T10:06:52;108.70;;;45.13;;
6564;SDS011;3316;44.118;27.258;2022-12-07T10:09:19;29.00;;;14.43;;
6564;SDS011;3316;44.118;27.258;2022-12-07T10:12:06;59.60;;;24.43;;
6564;SDS011;3316;44.118;27.258;2022-12-07T10:14:36;55.53;;;22.70;;
6564;SDS011;3316;44.118;27.258;2022-12-07T10:17:47;59.10;;;27.27;;
6564;SDS011;3316;44.118;27.258;2022-12-07T10:22:36;44.00;;;20.57;;
6564;SDS011;3316;44.118;27.258;2022-12-07T10:25:25;60.33;;;28.03;;
6564;SDS011;3316;44.118;27.258;2022-12-07T10:33:35;62.73;;;29.23;;
6564;SDS011;3316;44.118;27.258;2022-12-07T10:36:20;136.23;;;51.87;;
6564;SDS011;3316;44.118;27.258;2022-12-07T10:39:01;91.30;;;37.43;;
6564;SDS011;3316;44.118;27.258;2022-12-07T10:41:55;41.07;;;21.30;;
6564;SDS011;3316;44.118;27.258;2022-12-07T10:44:24;20.43;;;11.13;;
6564;SDS011;3316;44.118;27.258;2022-12-07T11:01:03;36.03;;;20.23;;
6564;SDS011;3316;44.118;27.258;2022-12-07T11:14:10;27.17;;;14.93;;
6564;SDS011;3316;44.118;27.258;2022-12-07T11:22:09;107.17;;;50.07;;
6564;SDS011;3316;44.118;27.258;2022-12-07T11:24:48;59.30;;;26.17;;
6564;SDS011;3316;44.118;27.258;2022-12-07T11:30:19;25.70;;;14.13;;
6564;SDS011;3316;44.118;27.258;2022-12-07T11:32:53;26.30;;;14.17;;
6564;SDS011;3316;44.118;27.258;2022-12-07T11:38:15;38.73;;;18.87;;
6564;SDS011;3316;44.118;27.258;2022-12-07T11:40:45;19.63;;;11.90;;
6564;SDS011;3316;44.118;27.258;2022-12-07T11:43:27;40.27;;;19.37;;
6564;SDS011;3316;44.118;27.258;2022-12-07T11:46:00;45.30;;;23.00;;
6564;SDS011;3316;44.118;27.258;2022-12-07T11:51:21;38.10;;;21.23;;
6564;SDS011;3316;44.118;27.258;2022-12-07T11:54:04;26.10;;;14.73;;
6564;SDS011;3316;44.118;27.258;2022-12-07T11:56:39;24.27;;;14.37;;
6564;SDS011;3316;44.118;27.258;2022-12-07T11:59:23;31.97;;;18.23;;
6564;SDS011;3316;44.118;27.258;2022-12-07T12:02:24;40.60;;;24.77;;
6564;SDS011;3316;44.118;27.258;2022-12-07T12:05:17;31.40;;;18.50;;
6564;SDS011;3316;44.118;27.258;2022-12-07T12:19:32;16.57;;;10.60;;
6564;SDS011;3316;44.118;27.258;2022-12-07T12:24:40;19.73;;;12.50;;
6564;SDS011;3316;44.118;27.258;2022-12-07T12:27:09;19.83;;;11.30;;
6564;SDS011;3316;44.118;27.258;2022-12-07T12:29:43;21.53;;;12.07;;
6564;SDS011;3316;44.118;27.258;2022-12-07T12:32:16;24.43;;;13.93;;
6564;SDS011;3316;44.118;27.258;2022-12-07T12:43:02;39.93;;;18.63;;
6564;SDS011;3316;44.118;27.258;2022-12-07T12:45:27;25.90;;;13.97;;
6564;SDS011;3316;44.118;27.258;2022-12-07T12:47:58;30.10;;;12.37;;
6564;SDS011;3316;44.118;27.258;2022-12-07T12:58:32;21.80;;;11.67;;
6564;SDS011;3316;44.118;27.258;2022-12-07T13:04:12;24.37;;;13.87;;
6564;SDS011;3316;44.118;27.258;2022-12-07T13:06:43;35.03;;;16.23;;
6564;SDS011;3316;44.118;27.258;2022-12-07T13:09:17;41.03;;;20.40;;
6564;SDS011;3316;44.118;27.258;2022-12-07T13:11:47;35.63;;;17.27;;
6564;SDS011;3316;44.118;27.258;2022-12-07T13:17:02;21.60;;;12.90;;
6564;SDS011;3316;44.118;27.258;2022-12-07T13:22:31;21.63;;;12.20;;
6564;SDS011;3316;44.118;27.258;2022-12-07T13:24:58;27.13;;;13.80;;
6564;SDS011;3316;44.118;27.258;2022-12-07T13:27:27;21.73;;;12.80;;
6564;SDS011;3316;44.118;27.258;2022-12-07T13:29:52;50.73;;;25.03;;
6564;SDS011;3316;44.118;27.258;2022-12-07T13:32:26;33.63;;;18.07;;
6564;SDS011;3316;44.118;27.258;2022-12-07T13:34:53;65.07;;;30.07;;
6564;SDS011;3316;44.118;27.258;2022-12-07T13:37:24;49.27;;;24.63;;
6564;SDS011;3316;44.118;27.258;2022-12-07T13:39:57;35.03;;;16.43;;
6564;SDS011;3316;44.118;27.258;2022-12-07T13:42:40;40.20;;;17.00;;
6564;SDS011;3316;44.118;27.258;2022-12-07T13:45:23;34.90;;;19.10;;
6564;SDS011;3316;44.118;27.258;2022-12-07T13:51:16;23.93;;;14.03;;
6564;SDS011;3316;44.118;27.258;2022-12-07T13:53:51;23.60;;;13.60;;
6564;SDS011;3316;44.118;27.258;2022-12-07T13:56:20;24.60;;;13.57;;
6564;SDS011;3316;44.118;27.258;2022-12-07T13:58:49;23.93;;;12.17;;
6564;SDS011;3316;44.118;27.258;2022-12-07T14:01:14;23.63;;;13.83;;
6564;SDS011;3316;44.118;27.258;2022-12-07T14:03:40;24.03;;;14.57;;
6564;SDS011;3316;44.118;27.258;2022-12-07T14:06:17;26.43;;;15.40;;
6564;SDS011;3316;44.118;27.258;2022-12-07T14:08:50;25.87;;;14.27;;
6564;SDS011;3316;44.118;27.258;2022-12-07T14:11:30;29.93;;;17.57;;
6564;SDS011;3316;44.118;27.258;2022-12-07T14:13:57;21.23;;;13.70;;
6564;SDS011;3316;44.118;27.258;2022-12-07T14:16:31;26.63;;;15.00;;
6564;SDS011;3316;44.118;27.258;2022-12-07T14:19:00;30.03;;;17.00;;
6564;SDS011;3316;44.118;27.258;2022-12-07T14:21:29;25.47;;;15.30;;
6564;SDS011;3316;44.118;27.258;2022-12-07T14:26:42;27.90;;;14.40;;
6564;SDS011;3316;44.118;27.258;2022-12-07T14:31:50;32.53;;;17.03;;
6564;SDS011;3316;44.118;27.258;2022-12-07T14:34:16;33.63;;;17.90;;
6564;SDS011;3316;44.118;27.258;2022-12-07T14:36:45;35.87;;;17.87;;
6564;SDS011;3316;44.118;27.258;2022-12-07T14:39:10;29.30;;;15.90;;
6564;SDS011;3316;44.118;27.258;2022-12-07T14:41:36;22.57;;;14.30;;
6564;SDS011;3316;44.118;27.258;2022-12-07T14:44:17;27.43;;;15.03;;
6564;SDS011;3316;44.118;27.258;2022-12-07T14:46:47;25.80;;;13.73;;
6564;SDS011;3316;44.118;27.258;2022-12-07T14:49:13;36.50;;;15.63;;
6564;SDS011;3316;44.118;27.258;2022-12-07T14:51:39;25.63;;;15.80;;
6564;SDS011;3316;44.118;27.258;2022-12-07T14:54:07;23.93;;;14.63;;
6564;SDS011;3316;44.118;27.258;2022-12-07T14:56:49;28.73;;;15.23;;
6564;SDS011;3316;44.118;27.258;2022-12-07T14:59:16;29.63;;;17.13;;
6564;SDS011;3316;44.118;27.258;2022-12-07T15:01:43;27.37;;;15.70;;
6564;SDS011;3316;44.118;27.258;2022-12-07T15:04:09;22.30;;;13.93;;
6564;SDS011;3316;44.118;27.258;2022-12-07T15:06:34;28.50;;;16.57;;
6564;SDS011;3316;44.118;27.258;2022-12-07T15:09:00;33.80;;;19.20;;
6564;SDS011;3316;44.118;27.258;2022-12-07T15:11:26;37.43;;;20.20;;
6564;SDS011;3316;44.118;27.258;2022-12-07T15:13:53;54.23;;;27.93;;
6564;SDS011;3316;44.118;27.258;2022-12-07T15:16:33;44.80;;;24.50;;
6564;SDS011;3316;44.118;27.258;2022-12-07T15:19:05;50.07;;;28.80;;
6564;SDS011;3316;44.118;27.258;2022-12-07T15:21:32;55.50;;;30.20;;
6564;SDS011;3316;44.118;27.258;2022-12-07T15:23:58;47.77;;;25.97;;
6564;SDS011;3316;44.118;27.258;2022-12-07T15:26:23;41.57;;;22.17;;
6564;SDS011;3316;44.118;27.258;2022-12-07T15:28:49;51.90;;;25.93;;
6564;SDS011;3316;44.118;27.258;2022-12-07T15:31:15;44.27;;;23.33;;
6564;SDS011;3316;44.118;27.258;2022-12-07T15:33:42;57.67;;;29.33;;
6564;SDS011;3316;44.118;27.258;2022-12-07T15:36:09;54.03;;;26.20;;
6564;SDS011;3316;44.118;27.258;2022-12-07T15:38:44;48.83;;;23.60;;
6564;SDS011;3316;44.118;27.258;2022-12-07T15:41:09;35.80;;;19.97;;
6564;SDS011;3316;44.118;27.258;2022-12-07T15:43:35;32.97;;;18.70;;
6564;SDS011;3316;44.118;27.258;2022-12-07T15:46:20;34.90;;;19.57;;
6564;SDS011;3316;44.118;27.258;2022-12-07T15:48:45;52.77;;;28.87;;
6564;SDS011;3316;44.118;27.258;2022-12-07T15:51:11;31.80;;;17.43;;
6564;SDS011;3316;44.118;27.258;2022-12-07T15:53:36;33.47;;;17.87;;
6564;SDS011;3316;44.118;27.258;2022-12-07T15:56:05;36.80;;;19.57;;
6564;SDS011;3316;44.118;27.258;2022-12-07T15:58:31;33.03;;;19.47;;
6564;SDS011;3316;44.118;27.258;2022-12-07T16:00:56;34.77;;;20.33;;
6564;SDS011;3316;44.118;27.258;2022-12-07T16:03:22;37.80;;;22.30;;
6564;SDS011;3316;44.118;27.258;2022-12-07T16:05:51;37.47;;;22.27;;
6564;SDS011;3316;44.118;27.258;2022-12-07T16:08:18;46.20;;;25.97;;
6564;SDS011;3316;44.118;27.258;2022-12-07T16:10:44;48.33;;;25.90;;
6564;SDS011;3316;44.118;27.258;2022-12-07T16:13:10;45.90;;;23.53;;
6564;SDS011;3316;44.118;27.258;2022-12-07T16:15:39;43.87;;;24.53;;
6564;SDS011;3316;44.118;27.258;2022-12-07T16:18:05;45.67;;;24.17;;
6564;SDS011;3316;44.118;27.258;2022-12-07T16:20:31;54.60;;;30.57;;
6564;SDS011;3316;44.118;27.258;2022-12-07T16:22:57;67.90;;;37.23;;
6564;SDS011;3316;44.118;27.258;2022-12-07T16:25:23;80.03;;;44.43;;
6564;SDS011;3316;44.118;27.258;2022-12-07T16:27:48;127.47;;;66.93;;
6564;SDS011;3316;44.118;27.258;2022-12-07T16:30:14;98.23;;;51.90;;
6564;SDS011;3316;44.118;27.258;2022-12-07T16:32:41;95.50;;;49.33;;
6564;SDS011;3316;44.118;27.258;2022-12-07T16:35:07;112.43;;;62.43;;
6564;SDS011;3316;44.118;27.258;2022-12-07T16:37:33;101.13;;;53.97;;
6564;SDS011;3316;44.118;27.258;2022-12-07T16:39:59;52.20;;;28.97;;
6564;SDS011;3316;44.118;27.258;2022-12-07T16:42:24;54.43;;;29.73;;
6564;SDS011;3316;44.118;27.258;2022-12-07T16:44:51;69.43;;;37.73;;
6564;SDS011;3316;44.118;27.258;2022-12-07T16:47:16;100.47;;;49.63;;
6564;SDS011;3316;44.118;27.258;2022-12-07T16:49:42;92.13;;;51.07;;
6564;SDS011;3316;44.118;27.258;2022-12-07T16:52:08;86.90;;;47.60;;
6564;SDS011;3316;44.118;27.258;2022-12-07T16:54:34;85.27;;;45.03;;
6564;SDS011;3316;44.118;27.258;2022-12-07T16:57:01;73.87;;;42.70;;
6564;SDS011;3316;44.118;27.258;2022-12-07T16:59:26;93.47;;;49.60;;